• Join FlightAware (Why Join?)
  • Login
  • US Flag 
12:02PM EDT


 

Airport Tracker/Info


-or-


 

Live Flight TrackerFlight Track Log ✈ CSN3252 ✈ 18-Jul-2013 ✈ ZSSS / SHA - ZGKL / KWL

Flight Track Log - Related Links

Times and Time Zones

All times are in EDT time to prevent confusion due to time zone crossing. See the CSN3252 flight status page for this flight to view local times or setup timezone preferences in your user account.

Time Position Orientation Groundspeed Altitude Reporting Facility
EDT Latitude Longitude Course Direction KTS MPH feet Rate Location/Type
08:46AM 31.1361 121.2020 242° Southwest  Level Estimated
08:47AM 31.0742 121.0679 242° Southwest  Level Estimated
08:48AM 31.0122 120.9340 242° Southwest  Level Estimated
08:49AM 30.9501 120.8002 242° Southwest  Level Estimated
08:50AM 30.8878 120.6666 242° Southwest  Level Estimated
08:51AM 30.8253 120.5332 241° Southwest  Level Estimated
08:52AM 30.7628 120.4000 241° Southwest  Level Estimated
08:53AM 30.7000 120.2669 241° Southwest  Level Estimated
08:54AM 30.6372 120.1340 241° Southwest  Level Estimated
08:55AM 30.5742 120.0013 241° Southwest  Level Estimated
08:56AM 30.5111 119.8687 241° Southwest  Level Estimated
08:57AM 30.4479 119.7364 241° Southwest  Level Estimated
08:58AM 30.3845 119.6041 241° Southwest  Level Estimated
08:59AM 30.3210 119.4721 241° Southwest  Level Estimated
09:00AM 30.2573 119.3402 241° Southwest  Level Estimated
09:01AM 30.1935 119.2086 241° Southwest  Level Estimated
09:02AM 30.1296 119.0770 241° Southwest  Level Estimated
09:03AM 30.0656 118.9457 241° Southwest  Level Estimated
09:04AM 30.0014 118.8145 241° Southwest  Level Estimated
09:05AM 29.9371 118.6835 240° Southwest  Level Estimated
09:06AM 29.8727 118.5527 240° Southwest  Level Estimated
09:07AM 29.8081 118.4220 240° Southwest  Level Estimated
09:08AM 29.7434 118.2915 240° Southwest  Level Estimated
09:09AM 29.6786 118.1611 240° Southwest  Level Estimated
09:10AM 29.6137 118.0310 240° Southwest  Level Estimated
09:11AM 29.5486 117.9010 240° Southwest  Level Estimated
09:12AM 29.4834 117.7711 240° Southwest  Level Estimated
09:13AM 29.4181 117.6415 240° Southwest  Level Estimated
09:14AM 29.3526 117.5120 240° Southwest  Level Estimated
09:15AM 29.2871 117.3827 240° Southwest  Level Estimated
09:16AM 29.2214 117.2535 240° Southwest  Level Estimated
09:17AM 29.1556 117.1245 240° Southwest  Level Estimated
09:18AM 29.0896 116.9957 240° Southwest  Level Estimated
09:19AM 29.0235 116.8670 240° Southwest  Level Estimated
09:20AM 28.9573 116.7385 240° Southwest  Level Estimated
09:21AM 28.8910 116.6101 239° Southwest  Level Estimated
09:22AM 28.8246 116.4819 239° Southwest  Level Estimated
09:23AM 28.7581 116.3539 239° Southwest  Level Estimated
09:24AM 28.6914 116.2261 239° Southwest  Level Estimated
09:25AM 28.6246 116.0984 239° Southwest  Level Estimated
09:26AM 28.5577 115.9709 239° Southwest  Level Estimated
09:27AM 28.4907 115.8435 239° Southwest  Level Estimated
09:28AM 28.4235 115.7163 239° Southwest  Level Estimated
09:29AM 28.3562 115.5893 239° Southwest  Level Estimated
09:30AM 28.2889 115.4624 239° Southwest  Level Estimated
09:31AM 28.2213 115.3357 239° Southwest  Level Estimated
09:32AM 28.1537 115.2091 239° Southwest  Level Estimated
09:33AM 28.0860 115.0827 239° Southwest  Level Estimated
09:34AM 28.0181 114.9565 239° Southwest  Level Estimated
09:35AM 27.9502 114.8304 239° Southwest  Level Estimated
09:36AM 27.8821 114.7045 239° Southwest  Level Estimated
09:37AM 27.8139 114.5787 239° Southwest  Level Estimated
09:38AM 27.7456 114.4531 238° Southwest  Level Estimated
09:39AM 27.6772 114.3277 238° Southwest  Level Estimated
09:40AM 27.6086 114.2024 238° Southwest  Level Estimated
09:41AM 27.5400 114.0772 238° Southwest  Level Estimated
09:42AM 27.4712 113.9523 238° Southwest  Level Estimated
09:43AM 27.4023 113.8275 238° Southwest  Level Estimated
09:44AM 27.3334 113.7028 238° Southwest  Level Estimated
09:45AM 27.2643 113.5783 238° Southwest  Level Estimated
09:46AM 27.1951 113.4539 238° Southwest  Level Estimated
09:47AM 27.1257 113.3297 238° Southwest  Level Estimated
09:48AM 27.0563 113.2057 238° Southwest  Level Estimated
09:49AM 26.9868 113.0818 238° Southwest  Level Estimated
09:50AM 26.9172 112.9581 238° Southwest  Level Estimated
09:51AM 26.8474 112.8345 238° Southwest  Level Estimated
09:52AM 26.7775 112.7110 238° Southwest  Level Estimated
09:53AM 26.7076 112.5878 238° Southwest  Level Estimated
09:54AM 26.6375 112.4646 238° Southwest  Level Estimated
09:55AM 26.5674 112.3416 237° Southwest  Level Estimated
09:56AM 26.4971 112.2188 237° Southwest  Level Estimated
09:57AM 26.4267 112.0961 237° Southwest  Level Estimated
09:58AM 26.3562 111.9736 237° Southwest  Level Estimated
09:59AM 26.2856 111.8512 237° Southwest  Level Estimated
10:00AM 26.2149 111.7290 237° Southwest  Level Estimated
10:01AM 26.1441 111.6069 237° Southwest  Level Estimated
10:02AM 26.0732 111.4850 237° Southwest  Level Estimated
10:03AM 26.0022 111.3632 237° Southwest  Level Estimated
10:04AM 25.9311 111.2416 237° Southwest  Level Estimated
10:05AM 25.8599 111.1201 237° Southwest  Level Estimated
10:06AM 25.7886 110.9987 237° Southwest  Level Estimated
10:07AM 25.7171 110.8775 237° Southwest  Level Estimated
10:08AM 25.6456 110.7565 237° Southwest  Level Estimated
10:09AM 25.5740 110.6356 237° Southwest  Level Estimated
10:10AM 25.5023 110.5148 237° Southwest  Level Estimated
10:11AM 25.4305 110.3942 237° Southwest  Level Estimated
10:12AM 25.3586 110.2737 237° Southwest  Level Estimated
10:13AM 25.2866 110.1534 237° Southwest  Level Estimated
10:14AM 25.2181 110.0392 236° Southwest  Level Estimated
10:15AM 25.2181 110.0392 214° Southwest  Level Estimated
10:16AM 25.2181 110.0392 214° Southwest  Level Estimated
10:17AM 25.2181 110.0392 214° Southwest  Level Estimated
10:18AM 25.2181 110.0392 214° Southwest  Level Estimated
10:19AM 25.2181 110.0392 214° Southwest  Level Estimated
10:20AM 25.2181 110.0392 214° Southwest  Level Estimated
10:21AM 25.2181 110.0392 214° Southwest  Level Estimated
10:22AM 25.2181 110.0392 214° Southwest  Level Estimated
10:23AM 25.2181 110.0392 214° Southwest  Level Estimated
10:24AM 25.2181 110.0392 214° Southwest  Level Estimated
10:25AM 25.2181 110.0392 214° Southwest  Level Estimated
10:26AM 25.2181 110.0392 214° Southwest  Level Estimated
10:27AM 25.2181 110.0392 214° Southwest  Level Estimated
10:28AM 25.2181 110.0392 214° Southwest  Level Estimated